createdAt,value
2018-11-10T00:00:09.677Z,171.80
2018-11-10T00:00:42.776Z,167.82
2018-11-10T00:01:15.489Z,157.43
2018-11-10T00:01:48.097Z,166.40
2018-11-10T00:02:20.742Z,173.15
2018-11-10T00:02:53.720Z,162.77
2018-11-10T00:03:26.344Z,155.52
2018-11-10T00:03:59.152Z,173.43
2018-11-10T00:04:31.852Z,155.48
2018-11-10T00:05:05.179Z,154.12
2018-11-10T00:05:37.825Z,156.75
2018-11-10T00:06:10.546Z,153.12
2018-11-10T00:06:43.122Z,152.53
2018-11-10T00:07:16.039Z,149.30
2018-11-10T00:07:48.642Z,148.22
2018-11-10T00:08:21.489Z,150.57
2018-11-10T00:08:54.138Z,144.72
2018-11-10T00:09:26.861Z,137.60
2018-11-10T00:09:59.622Z,142.47
2018-11-10T00:10:32.321Z,149.00
2018-11-10T00:11:05.136Z,156.25
2018-11-10T00:11:37.868Z,143.47
2018-11-10T00:12:10.496Z,152.87
2018-11-10T00:12:43.345Z,160.12
2018-11-10T00:13:15.999Z,145.28
2018-11-10T00:13:48.595Z,146.13
2018-11-10T00:14:21.279Z,150.40
2018-11-10T00:14:53.962Z,139.03
2018-11-10T00:15:26.717Z,134.80
2018-11-10T00:15:59.335Z,153.53
2018-11-10T00:16:32.035Z,145.55
2018-11-10T00:17:05.430Z,147.37
2018-11-10T00:17:38.046Z,147.25
2018-11-10T00:18:10.688Z,141.90
2018-11-10T00:18:43.278Z,149.62
2018-11-10T00:19:15.874Z,154.80
2018-11-10T00:19:48.557Z,138.72
2018-11-10T00:20:21.187Z,146.10
2018-11-10T00:20:53.825Z,142.65
2018-11-10T00:21:26.556Z,146.32
2018-11-10T00:21:59.161Z,145.95
2018-11-10T00:22:31.831Z,129.40
2018-11-10T00:23:04.528Z,154.25
2018-11-10T00:23:37.218Z,138.43
2018-11-10T00:24:09.889Z,152.25
2018-11-10T00:24:42.618Z,129.53
2018-11-10T00:25:15.653Z,131.72
2018-11-10T00:25:48.285Z,138.22
2018-11-10T00:26:21.004Z,135.57
2018-11-10T00:26:53.698Z,152.82
2018-11-10T00:27:26.410Z,139.85
2018-11-10T00:27:59.019Z,147.50
2018-11-10T00:28:31.680Z,156.43
2018-11-10T00:29:04.469Z,144.80
2018-11-10T00:29:37.191Z,140.92
2018-11-10T00:30:12.278Z,140.70
2018-11-10T00:30:44.969Z,130.45
2018-11-10T00:31:17.627Z,132.20
2018-11-10T00:31:50.227Z,154.85
2018-11-10T00:32:22.869Z,144.87
2018-11-10T00:32:55.496Z,131.27
2018-11-10T00:33:28.176Z,132.07
2018-11-10T00:34:00.880Z,136.62
2018-11-10T00:34:33.503Z,116.20
2018-11-10T00:35:06.328Z,135.63
2018-11-10T00:35:39.031Z,132.35
2018-11-10T00:36:11.799Z,136.03
2018-11-10T00:36:44.946Z,133.90
2018-11-10T00:37:17.547Z,126.35
2018-11-10T00:37:50.155Z,133.27
2018-11-10T00:38:22.775Z,132.05
2018-11-10T00:38:59.111Z,154.03
2018-11-10T00:39:31.748Z,142.50
2018-11-10T00:40:05.299Z,127.15
2018-11-10T00:40:37.900Z,122.78
2018-11-10T00:41:10.525Z,127.72
2018-11-10T00:41:43.191Z,123.15
2018-11-10T00:42:15.848Z,117.62
2018-11-10T00:42:48.478Z,118.60
2018-11-10T00:43:22.730Z,121.75
2018-11-10T00:43:55.374Z,120.77
2018-11-10T00:44:27.997Z,137.57
2018-11-10T00:45:00.628Z,134.10
2018-11-10T00:45:33.246Z,135.50
2018-11-10T00:46:05.919Z,117.40
2018-11-10T00:46:38.570Z,124.40
2018-11-10T00:47:11.245Z,137.43
2018-11-10T00:47:43.894Z,146.55
2018-11-10T00:48:16.526Z,125.42
2018-11-10T00:48:49.200Z,141.15
2018-11-10T00:49:21.853Z,122.33
2018-11-10T00:49:54.475Z,132.45
2018-11-10T00:50:27.083Z,123.67
2018-11-10T00:50:59.720Z,123.90
2018-11-10T00:51:32.335Z,126.42
2018-11-10T00:52:05.003Z,134.05
2018-11-10T00:52:37.957Z,124.02
2018-11-10T00:53:10.610Z,123.35
2018-11-10T00:53:43.280Z,118.82
2018-11-10T00:54:15.994Z,119.75
2018-11-10T00:54:48.632Z,117.85
2018-11-10T00:55:21.327Z,132.65
2018-11-10T00:55:53.970Z,132.47
2018-11-10T00:56:26.863Z,127.35
2018-11-10T00:56:59.523Z,123.67
2018-11-10T00:57:32.250Z,115.77
2018-11-10T00:58:05.007Z,117.50
2018-11-10T00:58:37.620Z,126.00
2018-11-10T00:59:10.439Z,115.17
2018-11-10T00:59:43.120Z,126.47
2018-11-10T01:00:15.785Z,129.47
2018-11-10T01:00:48.439Z,128.25
2018-11-10T01:01:21.106Z,132.12
2018-11-10T01:01:54.465Z,118.65
2018-11-10T01:02:27.095Z,117.20
2018-11-10T01:02:59.714Z,115.80
2018-11-10T01:03:32.327Z,128.57
2018-11-10T01:04:05.317Z,112.47
2018-11-10T01:04:37.960Z,125.15
2018-11-10T01:05:10.634Z,123.95
2018-11-10T01:05:43.242Z,118.28
2018-11-10T01:06:15.830Z,114.15
2018-11-10T01:06:48.427Z,121.00
2018-11-10T01:07:21.042Z,109.30
2018-11-10T01:07:53.627Z,130.55
2018-11-10T01:08:26.218Z,117.85
2018-11-10T01:08:58.799Z,122.07
2018-11-10T01:09:31.425Z,117.00
2018-11-10T01:10:05.184Z,124.10
2018-11-10T01:10:37.835Z,116.55
2018-11-10T01:11:10.438Z,116.73
2018-11-10T01:11:43.052Z,115.52
2018-11-10T01:12:15.632Z,111.17
2018-11-10T01:12:48.269Z,108.55
2018-11-10T01:13:20.904Z,123.55
2018-11-10T01:13:53.556Z,110.00
2018-11-10T01:14:26.138Z,113.83
2018-11-10T01:14:58.797Z,119.05
2018-11-10T01:15:31.389Z,122.22
2018-11-10T01:16:04.206Z,115.77
2018-11-10T01:16:36.795Z,119.90
2018-11-10T01:17:09.421Z,118.80
2018-11-10T01:17:42.547Z,137.03
2018-11-10T01:18:15.175Z,120.67
2018-11-10T01:18:47.846Z,147.30
2018-11-10T01:19:20.440Z,117.75
2018-11-10T01:19:53.083Z,127.22
2018-11-10T01:20:25.706Z,130.07
2018-11-10T01:20:58.370Z,128.75
2018-11-10T01:21:31.019Z,125.25
2018-11-10T01:22:03.720Z,123.25
2018-11-10T01:22:36.329Z,131.35
2018-11-10T01:23:08.959Z,121.20
2018-11-10T01:23:41.608Z,134.60
2018-11-10T01:24:14.262Z,145.68
2018-11-10T01:24:46.871Z,132.57
2018-11-10T01:25:19.470Z,122.00
2018-11-10T01:25:52.072Z,135.63
2018-11-10T01:26:24.667Z,133.03
2018-11-10T01:26:57.276Z,135.78
2018-11-10T01:27:29.927Z,142.90
2018-11-10T01:28:02.619Z,123.22
2018-11-10T01:28:35.146Z,128.02
2018-11-10T01:29:07.775Z,133.37
2018-11-10T01:29:40.391Z,125.47
2018-11-10T01:30:14.358Z,160.20
2018-11-10T01:30:46.934Z,137.57
2018-11-10T01:31:19.527Z,130.52
2018-11-10T01:31:52.119Z,132.18
2018-11-10T01:32:24.817Z,138.80
2018-11-10T01:32:57.437Z,127.05
2018-11-10T01:33:30.020Z,132.00
2018-11-10T01:34:02.650Z,131.50
2018-11-10T01:34:35.251Z,136.37
2018-11-10T01:35:07.988Z,126.42
2018-11-10T01:35:40.600Z,132.30
2018-11-10T01:36:13.206Z,128.10
2018-11-10T01:36:45.884Z,148.02
2018-11-10T01:37:18.520Z,131.82
2018-11-10T01:37:51.136Z,125.85
2018-11-10T01:38:23.730Z,138.32
2018-11-10T01:38:56.370Z,130.87
2018-11-10T01:39:28.973Z,139.92
2018-11-10T01:40:01.579Z,135.52
2018-11-10T01:40:34.200Z,138.43
2018-11-10T01:41:06.879Z,129.23
2018-11-10T01:41:39.679Z,135.48
2018-11-10T01:42:12.259Z,122.05
2018-11-10T01:42:44.886Z,123.53
2018-11-10T01:43:17.538Z,125.33
2018-11-10T01:43:50.142Z,126.87
2018-11-10T01:44:22.746Z,143.05
2018-11-10T01:44:55.383Z,127.22
2018-11-10T01:45:27.953Z,140.45
2018-11-10T01:46:00.544Z,127.92
2018-11-10T01:46:33.146Z,116.08
2018-11-10T01:47:05.758Z,134.27
2018-11-10T01:47:38.368Z,135.85
2018-11-10T01:48:11.003Z,129.12
2018-11-10T01:48:43.642Z,133.82
2018-11-10T01:49:16.230Z,133.00
2018-11-10T01:49:48.854Z,128.80
2018-11-10T01:50:21.457Z,145.57
2018-11-10T01:50:54.058Z,145.32
2018-11-10T01:51:26.656Z,137.70
2018-11-10T01:51:59.226Z,147.22
2018-11-10T01:52:31.811Z,139.07
2018-11-10T01:53:04.447Z,126.15
2018-11-10T01:53:37.029Z,136.00
2018-11-10T01:54:09.672Z,139.75
2018-11-10T01:54:42.291Z,155.32
2018-11-10T01:55:14.961Z,134.63
2018-11-10T01:55:47.546Z,138.92
2018-11-10T01:56:20.135Z,140.70
2018-11-10T01:56:52.707Z,134.97
2018-11-10T01:57:25.322Z,148.57
2018-11-10T01:57:57.914Z,144.57
2018-11-10T01:58:30.541Z,134.47
2018-11-10T01:59:03.186Z,131.47
2018-11-10T01:59:35.863Z,138.22
2018-11-10T02:00:11.969Z,120.05
2018-11-10T02:00:44.555Z,127.15
2018-11-10T02:01:17.170Z,144.05
2018-11-10T02:01:49.780Z,139.32
2018-11-10T02:02:22.379Z,122.75
2018-11-10T02:02:54.964Z,132.45
2018-11-10T02:03:27.569Z,139.05
2018-11-10T02:04:00.200Z,137.32
2018-11-10T02:04:32.826Z,120.10
2018-11-10T02:05:05.735Z,126.20
2018-11-10T02:05:38.302Z,133.65
2018-11-10T02:06:10.972Z,126.62
2018-11-10T02:06:43.693Z,127.22
2018-11-10T02:07:16.211Z,129.68
2018-11-10T02:07:48.818Z,131.60
2018-11-10T02:08:21.406Z,126.02
2018-11-10T02:08:53.986Z,139.77
2018-11-10T02:09:26.563Z,138.05
2018-11-10T02:09:59.155Z,136.52
2018-11-10T02:10:31.756Z,127.45
2018-11-10T02:11:04.482Z,144.10
2018-11-10T02:11:37.136Z,133.07
2018-11-10T02:12:09.828Z,140.05
2018-11-10T02:12:42.527Z,118.97
2018-11-10T02:13:15.132Z,131.95
2018-11-10T02:13:47.723Z,118.87
2018-11-10T02:14:20.319Z,125.97
2018-11-10T02:14:52.935Z,109.20
2018-11-10T02:15:25.557Z,108.35
2018-11-10T02:15:58.219Z,133.50
2018-11-10T02:16:30.798Z,121.67
2018-11-10T02:17:03.463Z,113.57
2018-11-10T02:17:36.035Z,114.97
2018-11-10T02:18:08.665Z,123.35
2018-11-10T02:18:41.253Z,121.97
2018-11-10T02:19:13.863Z,116.93
2018-11-10T02:19:46.500Z,136.05
2018-11-10T02:20:19.131Z,117.53
2018-11-10T02:20:51.746Z,119.40
2018-11-10T02:21:24.350Z,119.57
2018-11-10T02:21:57.031Z,121.97
2018-11-10T02:22:29.694Z,118.02
2018-11-10T02:23:02.369Z,116.97
2018-11-10T02:23:35.008Z,116.93
2018-11-10T02:24:07.638Z,124.18
2018-11-10T02:24:40.251Z,120.22
2018-11-10T02:25:13.118Z,110.45
2018-11-10T02:25:45.809Z,107.17
2018-11-10T02:26:18.475Z,125.15
2018-11-10T02:26:51.156Z,121.67
2018-11-10T02:27:24.283Z,114.28
2018-11-10T02:27:56.907Z,133.32
2018-11-10T02:28:29.563Z,117.40
2018-11-10T02:29:02.265Z,124.47
2018-11-10T02:29:34.939Z,115.50
2018-11-10T02:30:09.019Z,105.40
2018-11-10T02:30:41.711Z,103.00
2018-11-10T02:31:14.353Z,115.95
2018-11-10T02:31:46.937Z,117.97
2018-11-10T02:32:19.984Z,109.78
2018-11-10T02:32:52.571Z,118.22
2018-11-10T02:33:25.159Z,123.18
2018-11-10T02:33:57.755Z,103.22
2018-11-10T02:34:30.343Z,105.37
2018-11-10T02:35:02.991Z,111.62
2018-11-10T02:35:35.695Z,117.20
2018-11-10T02:36:08.319Z,120.75
2018-11-10T02:36:40.923Z,114.57
2018-11-10T02:37:13.540Z,101.90
2018-11-10T02:37:46.183Z,101.47
2018-11-10T02:38:18.772Z,107.85
2018-11-10T02:38:51.515Z,115.50
2018-11-10T02:39:24.012Z,107.63
2018-11-10T02:39:56.639Z,116.67
2018-11-10T02:40:29.275Z,106.32
2018-11-10T02:41:01.887Z,99.28
2018-11-10T02:41:34.580Z,119.17
2018-11-10T02:42:07.206Z,118.33
2018-11-10T02:42:39.786Z,122.72
2018-11-10T02:43:12.391Z,100.27
2018-11-10T02:43:45.003Z,112.28
2018-11-10T02:44:17.610Z,111.45
2018-11-10T02:44:50.238Z,117.08
2018-11-10T02:45:22.874Z,118.85
2018-11-10T02:45:55.484Z,100.87
2018-11-10T02:46:28.100Z,111.35
2018-11-10T02:47:00.700Z,111.05
2018-11-10T02:47:33.315Z,110.83
2018-11-10T02:48:05.919Z,108.10
2018-11-10T02:48:38.530Z,109.03
2018-11-10T02:49:11.111Z,129.00
2018-11-10T02:49:43.730Z,115.67
2018-11-10T02:50:16.364Z,103.62
2018-11-10T02:50:48.959Z,106.25
2018-11-10T02:51:21.570Z,108.27
2018-11-10T02:51:54.211Z,116.80
2018-11-10T02:52:26.826Z,129.87
2018-11-10T02:52:59.422Z,123.53
2018-11-10T02:53:32.014Z,120.17
2018-11-10T02:54:04.899Z,118.62
2018-11-10T02:54:37.567Z,106.43
2018-11-10T02:55:10.785Z,120.13
2018-11-10T02:55:43.376Z,106.20
2018-11-10T02:56:16.000Z,108.67
2018-11-10T02:56:48.590Z,118.70
2018-11-10T02:57:21.222Z,107.83
2018-11-10T02:57:53.831Z,121.87
2018-11-10T02:58:26.455Z,98.75
2018-11-10T02:58:59.072Z,105.43
2018-11-10T02:59:31.675Z,111.88
2018-11-10T03:00:04.616Z,107.50
2018-11-10T03:00:37.193Z,106.37
2018-11-10T03:01:09.804Z,105.20
2018-11-10T03:01:42.472Z,106.22
2018-11-10T03:02:15.092Z,101.27
2018-11-10T03:02:47.682Z,109.37
2018-11-10T03:03:20.272Z,97.12
2018-11-10T03:03:52.881Z,101.65
2018-11-10T03:04:25.513Z,110.48
2018-11-10T03:04:58.138Z,107.07
2018-11-10T03:05:30.756Z,101.27
2018-11-10T03:06:03.450Z,115.82
2018-11-10T03:06:36.059Z,110.57
2018-11-10T03:07:08.671Z,109.07
2018-11-10T03:07:41.263Z,102.42
2018-11-10T03:08:13.862Z,109.42
2018-11-10T03:08:46.464Z,99.77
2018-11-10T03:09:19.093Z,113.00
2018-11-10T03:09:51.690Z,109.92
2018-11-10T03:10:24.283Z,104.38
2018-11-10T03:10:56.970Z,114.10
2018-11-10T03:11:29.558Z,97.57
2018-11-10T03:12:02.139Z,110.37
2018-11-10T03:12:34.755Z,91.32
2018-11-10T03:13:07.827Z,106.47
2018-11-10T03:13:40.427Z,95.97
2018-11-10T03:14:13.069Z,97.45
2018-11-10T03:14:45.716Z,116.60
2018-11-10T03:15:18.314Z,99.13
2018-11-10T03:15:50.938Z,104.40
2018-11-10T03:16:23.636Z,106.43
2018-11-10T03:16:56.168Z,105.78
2018-11-10T03:17:28.766Z,100.02
2018-11-10T03:18:01.388Z,98.07
2018-11-10T03:18:34.020Z,92.50
2018-11-10T03:19:06.595Z,86.12
2018-11-10T03:19:39.194Z,92.78
2018-11-10T03:20:13.388Z,102.42
2018-11-10T03:20:46.008Z,96.47
2018-11-10T03:21:18.615Z,94.95
2018-11-10T03:21:51.196Z,97.08
2018-11-10T03:22:23.832Z,100.10
2018-11-10T03:22:56.477Z,94.87
2018-11-10T03:23:29.063Z,89.50
2018-11-10T03:24:01.676Z,91.05
2018-11-10T03:24:34.263Z,99.37
2018-11-10T03:25:06.843Z,101.12
2018-11-10T03:25:39.427Z,92.97
2018-11-10T03:26:12.055Z,87.95
2018-11-10T03:26:44.708Z,96.90
2018-11-10T03:27:17.290Z,92.80
2018-11-10T03:27:49.902Z,101.70
2018-11-10T03:28:22.484Z,94.47
2018-11-10T03:28:55.071Z,96.80
2018-11-10T03:29:27.666Z,104.25
2018-11-10T03:30:00.268Z,88.82
2018-11-10T03:30:32.895Z,91.85
2018-11-10T03:31:06.091Z,98.92
2018-11-10T03:31:38.663Z,95.50
2018-11-10T03:32:11.275Z,85.67
2018-11-10T03:32:43.901Z,95.77
2018-11-10T03:33:16.487Z,102.02
2018-11-10T03:33:49.079Z,95.77
2018-11-10T03:34:21.670Z,110.78
2018-11-10T03:34:54.250Z,103.90
2018-11-10T03:35:26.846Z,100.53
2018-11-10T03:35:59.531Z,93.75
2018-11-10T03:36:32.157Z,100.18
2018-11-10T03:37:04.907Z,97.05
2018-11-10T03:37:37.600Z,92.42
2018-11-10T03:38:10.232Z,95.87
2018-11-10T03:38:42.865Z,99.90
2018-11-10T03:39:15.591Z,93.55
2018-11-10T03:39:48.229Z,90.50
2018-11-10T03:40:20.830Z,96.92
2018-11-10T03:40:53.547Z,103.02
2018-11-10T03:41:26.179Z,103.67
2018-11-10T03:41:58.759Z,97.27
2018-11-10T03:42:31.322Z,89.20
2018-11-10T03:43:03.955Z,95.32
2018-11-10T03:43:36.675Z,85.17
2018-11-10T03:44:09.646Z,92.55
2018-11-10T03:44:42.234Z,89.92
2018-11-10T03:45:14.864Z,97.33
2018-11-10T03:45:47.491Z,87.45
2018-11-10T03:46:20.090Z,87.53
2018-11-10T03:46:52.699Z,94.05
2018-11-10T03:47:25.329Z,108.90
2018-11-10T03:47:57.915Z,101.45
2018-11-10T03:48:30.617Z,108.47
2018-11-10T03:49:03.252Z,107.03
2018-11-10T03:49:35.872Z,93.07
2018-11-10T03:50:09.456Z,94.55
2018-11-10T03:50:42.112Z,104.32
2018-11-10T03:51:14.682Z,98.30
2018-11-10T03:51:47.309Z,98.05
2018-11-10T03:52:19.907Z,95.28
2018-11-10T03:52:52.486Z,98.35
2018-11-10T03:53:25.104Z,105.07
2018-11-10T03:53:57.737Z,88.92
2018-11-10T03:54:30.343Z,93.85
2018-11-10T03:55:02.974Z,102.85
2018-11-10T03:55:35.604Z,85.00
2018-11-10T03:56:08.239Z,95.15
2018-11-10T03:56:40.815Z,101.10
2018-11-10T03:57:13.411Z,118.05
2018-11-10T03:57:46.080Z,91.50
2018-11-10T03:58:18.710Z,94.58
2018-11-10T03:58:51.322Z,106.43
2018-11-10T03:59:23.961Z,91.20
2018-11-10T03:59:56.543Z,93.97
2018-11-10T04:00:29.163Z,101.02
2018-11-10T04:01:01.787Z,100.00
2018-11-10T04:01:34.371Z,113.57
2018-11-10T04:02:07.004Z,92.47
2018-11-10T04:02:40.347Z,84.55
2018-11-10T04:03:12.931Z,104.85
2018-11-10T04:03:45.506Z,91.40
2018-11-10T04:04:18.178Z,103.42
2018-11-10T04:04:50.823Z,107.85
2018-11-10T04:05:23.448Z,96.95
2018-11-10T04:05:56.073Z,100.75
2018-11-10T04:06:28.675Z,100.58
2018-11-10T04:07:01.345Z,100.05
2018-11-10T04:07:33.955Z,105.67
2018-11-10T04:08:06.572Z,116.33
2018-11-10T04:08:39.191Z,101.47
2018-11-10T04:09:11.800Z,99.22
2018-11-10T04:09:44.440Z,107.40
2018-11-10T04:10:17.059Z,92.02
2018-11-10T04:10:49.671Z,109.48
2018-11-10T04:11:22.268Z,104.50
2018-11-10T04:11:54.847Z,101.25
2018-11-10T04:12:27.488Z,102.42
2018-11-10T04:13:00.106Z,103.60
2018-11-10T04:13:32.678Z,96.45
2018-11-10T04:14:05.473Z,95.45
2018-11-10T04:14:38.088Z,84.67
2018-11-10T04:15:10.682Z,102.05
2018-11-10T04:15:43.341Z,100.45
2018-11-10T04:16:16.195Z,97.35
2018-11-10T04:16:48.806Z,103.47
2018-11-10T04:17:21.368Z,94.55
2018-11-10T04:17:54.000Z,93.20
2018-11-10T04:18:26.633Z,84.52
2018-11-10T04:18:59.230Z,103.10
2018-11-10T04:19:31.849Z,100.85
2018-11-10T04:20:05.743Z,103.75
2018-11-10T04:20:38.332Z,96.42
2018-11-10T04:21:10.971Z,93.12
2018-11-10T04:21:43.595Z,108.35
2018-11-10T04:22:20.718Z,85.90
2018-11-10T04:22:53.296Z,102.97
2018-11-10T04:23:25.871Z,96.63
2018-11-10T04:23:58.512Z,96.55
2018-11-10T04:24:31.100Z,90.53
2018-11-10T04:25:05.316Z,99.28
2018-11-10T04:25:37.907Z,96.82
2018-11-10T04:26:10.514Z,96.90
2018-11-10T04:26:43.173Z,102.30
2018-11-10T04:27:15.797Z,103.05
2018-11-10T04:27:48.404Z,95.42
2018-11-10T04:28:20.985Z,87.70
2018-11-10T04:28:53.555Z,102.12
2018-11-10T04:29:26.179Z,101.10
2018-11-10T04:29:58.751Z,107.60
2018-11-10T04:30:31.336Z,89.65
2018-11-10T04:31:04.213Z,106.07
2018-11-10T04:31:36.869Z,101.92
2018-11-10T04:32:09.508Z,96.12
2018-11-10T04:32:42.082Z,101.25
2018-11-10T04:33:14.667Z,103.27
2018-11-10T04:33:47.271Z,101.40
2018-11-10T04:34:19.870Z,90.65
2018-11-10T04:34:52.506Z,100.53
2018-11-10T04:35:25.107Z,104.05
2018-11-10T04:35:57.735Z,109.27
2018-11-10T04:36:30.431Z,91.08
2018-11-10T04:37:03.034Z,103.02
2018-11-10T04:37:35.938Z,108.52
2018-11-10T04:38:08.550Z,94.47
2018-11-10T04:38:41.170Z,99.50
2018-11-10T04:39:13.796Z,96.37
2018-11-10T04:39:46.463Z,90.05
2018-11-10T04:40:19.062Z,92.80
2018-11-10T04:40:51.670Z,99.32
2018-11-10T04:41:24.293Z,102.72
2018-11-10T04:41:56.928Z,97.70
2018-11-10T04:42:29.514Z,90.03
2018-11-10T04:43:02.163Z,93.78
2018-11-10T04:43:34.778Z,89.00
2018-11-10T04:44:07.402Z,89.07
2018-11-10T04:44:40.004Z,93.35
2018-11-10T04:45:12.608Z,96.42
2018-11-10T04:45:45.235Z,100.30
2018-11-10T04:46:17.912Z,98.20
2018-11-10T04:46:50.533Z,90.10
2018-11-10T04:47:23.184Z,101.72
2018-11-10T04:47:55.816Z,103.50
2018-11-10T04:48:28.434Z,92.35
2018-11-10T04:49:01.010Z,91.92
2018-11-10T04:49:33.667Z,97.42
2018-11-10T04:50:07.706Z,101.12
2018-11-10T04:50:40.349Z,96.00
2018-11-10T04:51:12.965Z,90.97
2018-11-10T04:51:45.547Z,102.02
2018-11-10T04:52:18.185Z,102.15
2018-11-10T04:52:50.797Z,95.10
2018-11-10T04:53:23.394Z,104.17
2018-11-10T04:53:56.041Z,103.22
2018-11-10T04:54:28.664Z,93.65
2018-11-10T04:55:01.271Z,96.55
2018-11-10T04:55:33.876Z,94.80
2018-11-10T04:56:06.475Z,97.62
2018-11-10T04:56:39.095Z,94.13
2018-11-10T04:57:11.738Z,88.12
2018-11-10T04:57:44.346Z,86.40
2018-11-10T04:58:16.938Z,89.47
2018-11-10T04:58:49.578Z,93.30
2018-11-10T04:59:22.204Z,98.50
2018-11-10T04:59:54.787Z,99.62
2018-11-10T05:00:27.386Z,87.50
2018-11-10T05:01:00.023Z,90.42
2018-11-10T05:01:32.611Z,102.53
2018-11-10T05:02:05.299Z,96.70
2018-11-10T05:02:37.908Z,106.12
2018-11-10T05:03:10.529Z,118.67
2018-11-10T05:03:43.124Z,111.25
2018-11-10T05:04:15.757Z,93.92
2018-11-10T05:04:48.391Z,100.30
2018-11-10T05:05:21.006Z,100.18
2018-11-10T05:05:53.644Z,100.33
2018-11-10T05:06:26.222Z,102.15
2018-11-10T05:06:58.837Z,114.03
2018-11-10T05:07:31.418Z,104.27
2018-11-10T05:08:04.144Z,103.35
2018-11-10T05:08:36.757Z,103.10
2018-11-10T05:09:10.260Z,99.28
2018-11-10T05:09:42.843Z,97.27
2018-11-10T05:10:15.483Z,102.72
2018-11-10T05:10:48.087Z,103.32
2018-11-10T05:11:20.677Z,102.45
2018-11-10T05:11:53.361Z,99.45
2018-11-10T05:12:25.982Z,98.37
2018-11-10T05:12:58.624Z,101.18
2018-11-10T05:13:31.244Z,97.85
2018-11-10T05:14:03.974Z,104.10
2018-11-10T05:14:36.592Z,102.82
2018-11-10T05:15:10.648Z,107.37
2018-11-10T05:15:43.269Z,102.95
2018-11-10T05:16:15.838Z,86.63
2018-11-10T05:16:48.449Z,106.80
2018-11-10T05:17:21.075Z,107.92
2018-11-10T05:17:53.694Z,112.57
2018-11-10T05:18:26.263Z,98.47
2018-11-10T05:18:58.858Z,106.07
2018-11-10T05:19:31.422Z,101.38
2018-11-10T05:20:04.417Z,109.52
2018-11-10T05:20:37.044Z,102.32
2018-11-10T05:21:09.694Z,98.92
2018-11-10T05:21:42.310Z,92.05
2018-11-10T05:22:14.963Z,99.58
2018-11-10T05:22:47.559Z,103.92
2018-11-10T05:23:20.184Z,106.35
2018-11-10T05:23:52.883Z,106.80
2018-11-10T05:24:25.511Z,118.80
2018-11-10T05:24:58.144Z,99.75
2018-11-10T05:25:30.742Z,109.55
2018-11-10T05:26:03.314Z,101.55
2018-11-10T05:26:35.920Z,99.37
2018-11-10T05:27:08.568Z,103.27
2018-11-10T05:27:41.178Z,94.35
2018-11-10T05:28:13.808Z,102.35
2018-11-10T05:28:46.398Z,106.35
2018-11-10T05:29:19.040Z,106.43
2018-11-10T05:29:51.634Z,91.95
2018-11-10T05:30:24.212Z,90.85
2018-11-10T05:30:56.842Z,90.87
2018-11-10T05:31:29.411Z,82.92
2018-11-10T05:32:02.072Z,82.00
2018-11-10T05:32:34.671Z,97.10
2018-11-10T05:33:07.296Z,96.53
2018-11-10T05:33:39.883Z,89.25
2018-11-10T05:34:13.188Z,93.50
2018-11-10T05:34:45.807Z,86.45
2018-11-10T05:35:18.434Z,106.47
2018-11-10T05:35:51.074Z,99.30
2018-11-10T05:36:23.689Z,109.92
2018-11-10T05:36:56.426Z,115.42
2018-11-10T05:37:29.070Z,111.75
2018-11-10T05:38:01.711Z,103.80
2018-11-10T05:38:34.295Z,102.67
2018-11-10T05:39:07.995Z,103.45
2018-11-10T05:39:40.623Z,100.85
2018-11-10T05:40:13.210Z,100.85
2018-11-10T05:40:45.806Z,94.75
2018-11-10T05:41:18.397Z,98.00
2018-11-10T05:41:51.024Z,109.30
2018-11-10T05:42:23.610Z,88.05
2018-11-10T05:42:56.249Z,99.77
2018-11-10T05:43:28.865Z,97.57
2018-11-10T05:44:01.512Z,105.80
2018-11-10T05:44:34.131Z,100.87
2018-11-10T05:45:06.849Z,103.27
2018-11-10T05:45:39.485Z,103.38
2018-11-10T05:46:12.086Z,101.47
2018-11-10T05:46:44.677Z,108.12
2018-11-10T05:47:17.289Z,98.00
2018-11-10T05:47:49.895Z,105.07
2018-11-10T05:48:22.565Z,111.22
2018-11-10T05:48:55.151Z,116.25
2018-11-10T05:49:27.748Z,96.02
2018-11-10T05:50:00.402Z,98.78
2018-11-10T05:50:33.049Z,105.32
2018-11-10T05:51:05.694Z,102.42
2018-11-10T05:51:38.275Z,100.70
2018-11-10T05:52:10.876Z,113.92
2018-11-10T05:52:43.486Z,109.30
2018-11-10T05:53:16.110Z,112.57
2018-11-10T05:53:48.763Z,102.07
2018-11-10T05:54:21.339Z,111.77
2018-11-10T05:54:53.927Z,112.52
2018-11-10T05:55:26.552Z,109.78
2018-11-10T05:55:59.143Z,113.77
2018-11-10T05:56:31.766Z,109.57
2018-11-10T05:57:04.527Z,112.80
2018-11-10T05:57:37.450Z,101.35
2018-11-10T05:58:10.060Z,106.25
2018-11-10T05:58:42.636Z,103.83
2018-11-10T05:59:15.271Z,118.13
2018-11-10T05:59:47.890Z,124.72
2018-11-10T06:00:20.500Z,133.20
2018-11-10T06:00:53.106Z,127.25
2018-11-10T06:01:25.731Z,127.97
2018-11-10T06:01:58.386Z,130.90
2018-11-10T06:02:30.995Z,130.93
2018-11-10T06:03:03.630Z,128.40
2018-11-10T06:03:36.639Z,135.48
2018-11-10T06:04:09.235Z,128.72
2018-11-10T06:04:41.854Z,139.12
2018-11-10T06:05:14.471Z,138.85
2018-11-10T06:05:47.098Z,110.95
2018-11-10T06:06:19.710Z,125.50
2018-11-10T06:06:52.324Z,146.40
2018-11-10T06:07:24.911Z,134.95
2018-11-10T06:07:57.510Z,133.43
2018-11-10T06:08:30.167Z,129.78
2018-11-10T06:09:03.112Z,137.32
2018-11-10T06:09:35.675Z,127.22
2018-11-10T06:10:09.693Z,134.70
2018-11-10T06:10:42.197Z,121.17
2018-11-10T06:11:14.852Z,119.97
2018-11-10T06:11:47.454Z,117.03
2018-11-10T06:12:20.082Z,106.05
2018-11-10T06:12:52.701Z,114.95
2018-11-10T06:13:25.298Z,123.28
2018-11-10T06:13:57.879Z,133.32
2018-11-10T06:14:30.499Z,123.18
2018-11-10T06:15:03.289Z,118.40
2018-11-10T06:15:35.968Z,114.95
2018-11-10T06:16:08.567Z,112.95
2018-11-10T06:16:41.138Z,121.50
2018-11-10T06:17:13.756Z,136.03
2018-11-10T06:17:46.335Z,125.82
2018-11-10T06:18:18.947Z,128.95
2018-11-10T06:18:51.593Z,122.58
2018-11-10T06:19:24.228Z,123.10
2018-11-10T06:19:56.862Z,122.50
2018-11-10T06:20:29.448Z,120.10
2018-11-10T06:21:02.071Z,118.75
2018-11-10T06:21:34.668Z,124.58
2018-11-10T06:22:07.266Z,140.43
2018-11-10T06:22:39.943Z,131.60
2018-11-10T06:23:12.568Z,113.50
2018-11-10T06:23:45.186Z,123.67
2018-11-10T06:24:17.813Z,119.67
2018-11-10T06:24:50.423Z,115.65
2018-11-10T06:25:23.024Z,118.57
2018-11-10T06:25:55.663Z,119.75
2018-11-10T06:26:28.726Z,118.40
2018-11-10T06:27:01.332Z,110.22
2018-11-10T06:27:33.934Z,120.72
2018-11-10T06:28:06.585Z,120.35
2018-11-10T06:28:39.225Z,112.60
2018-11-10T06:29:11.852Z,121.97
2018-11-10T06:29:44.475Z,126.18
2018-11-10T06:30:17.095Z,120.13
2018-11-10T06:30:49.704Z,110.28
2018-11-10T06:31:22.295Z,123.85
2018-11-10T06:31:54.930Z,110.42
2018-11-10T06:32:27.553Z,109.17
2018-11-10T06:33:00.232Z,100.33
2018-11-10T06:33:32.850Z,117.85
2018-11-10T06:34:05.496Z,113.35
2018-11-10T06:34:38.218Z,119.42
2018-11-10T06:35:11.277Z,119.30
2018-11-10T06:35:43.895Z,107.15
2018-11-10T06:36:16.530Z,122.47
2018-11-10T06:36:49.123Z,123.05
2018-11-10T06:37:21.859Z,110.35
2018-11-10T06:37:54.454Z,111.32
2018-11-10T06:38:27.101Z,121.02
2018-11-10T06:38:59.696Z,126.25
2018-11-10T06:39:32.327Z,125.02
2018-11-10T06:40:06.985Z,119.82
2018-11-10T06:40:39.601Z,127.00
2018-11-10T06:41:12.227Z,108.60
2018-11-10T06:41:44.843Z,116.55
2018-11-10T06:42:17.455Z,132.70
2018-11-10T06:42:50.064Z,104.97
2018-11-10T06:43:22.646Z,112.92
2018-11-10T06:43:55.238Z,115.82
2018-11-10T06:44:27.845Z,127.72
2018-11-10T06:45:00.438Z,119.40
2018-11-10T06:45:33.027Z,123.35
2018-11-10T06:46:05.656Z,119.60
2018-11-10T06:46:39.035Z,118.37
2018-11-10T06:47:11.718Z,118.65
2018-11-10T06:47:44.215Z,122.25
2018-11-10T06:48:16.819Z,121.37
2018-11-10T06:48:49.399Z,124.40
2018-11-10T06:49:22.011Z,141.05
2018-11-10T06:49:54.622Z,122.80
2018-11-10T06:50:27.202Z,115.00